createdAt,value
2022-09-25T00:00:56.584Z,984.3
2022-09-25T00:03:22.600Z,984.4
2022-09-25T00:05:48.718Z,984.4
2022-09-25T00:08:14.885Z,984.3
2022-09-25T00:10:39.966Z,984.4
2022-09-25T00:13:06.001Z,984.4
2022-09-25T00:15:32.117Z,984.4
2022-09-25T00:17:58.188Z,984.4
2022-09-25T00:20:24.302Z,984.4
2022-09-25T00:22:50.390Z,984.4
2022-09-25T00:27:42.573Z,984.4
2022-09-25T00:30:08.680Z,984.3
2022-09-25T00:32:34.787Z,984.3
2022-09-25T00:35:00.871Z,984.3
2022-09-25T00:37:26.960Z,984.4
2022-09-25T00:39:53.047Z,984.3
2022-09-25T00:42:18.172Z,984.3
2022-09-25T00:44:44.268Z,984.4
2022-09-25T00:47:10.359Z,984.3
2022-09-25T00:49:36.458Z,984.2
2022-09-25T00:52:02.543Z,984.1
2022-09-25T00:54:28.638Z,984.1
2022-09-25T00:56:54.731Z,984.1
2022-09-25T00:59:20.826Z,984.1
2022-09-25T01:01:46.950Z,984
2022-09-25T01:04:13.014Z,984
2022-09-25T01:06:39.112Z,984
2022-09-25T01:09:05.218Z,984
2022-09-25T01:11:31.340Z,984
2022-09-25T01:13:56.455Z,984
2022-09-25T01:16:22.554Z,984
2022-09-25T01:18:48.607Z,984.1
2022-09-25T01:21:14.719Z,984
2022-09-25T01:23:40.789Z,983.9
2022-09-25T01:26:06.895Z,983.9
2022-09-25T01:28:32.983Z,983.9
2022-09-25T01:30:59.081Z,983.9
2022-09-25T01:33:25.217Z,983.9
2022-09-25T01:35:51.267Z,983.9
2022-09-25T01:38:17.382Z,983.9
2022-09-25T01:40:43.475Z,983.8
2022-09-25T01:43:09.606Z,983.9
2022-09-25T01:45:34.749Z,983.9
2022-09-25T01:48:00.781Z,984
2022-09-25T01:50:26.855Z,984
2022-09-25T01:52:52.956Z,983.9
2022-09-25T01:55:19.066Z,983.9
2022-09-25T01:57:45.159Z,983.9
2022-09-25T02:00:11.245Z,984
2022-09-25T02:02:37.349Z,984
2022-09-25T02:05:03.434Z,984
2022-09-25T02:07:29.540Z,983.9
2022-09-25T02:09:55.876Z,983.9
2022-09-25T02:12:21.725Z,983.9
2022-09-25T02:14:47.811Z,984.1
2022-09-25T02:17:12.938Z,984
2022-09-25T02:19:39.021Z,984
2022-09-25T02:22:05.139Z,984
2022-09-25T02:24:31.224Z,984
2022-09-25T02:26:57.306Z,984.1
2022-09-25T02:29:23.428Z,984
2022-09-25T02:31:49.508Z,984
2022-09-25T02:34:15.629Z,984
2022-09-25T02:36:41.705Z,984
2022-09-25T02:39:07.791Z,984
2022-09-25T02:41:33.887Z,983.9
2022-09-25T02:44:00.005Z,984
2022-09-25T02:46:26.085Z,983.9
2022-09-25T02:48:51.181Z,984
2022-09-25T02:51:17.294Z,984
2022-09-25T02:53:43.382Z,983.8
2022-09-25T02:56:09.472Z,983.9
2022-09-25T02:58:35.565Z,983.9
2022-09-25T03:01:01.653Z,984
2022-09-25T03:03:27.753Z,983.9
2022-09-25T03:05:53.873Z,983.9
2022-09-25T03:08:19.943Z,984
2022-09-25T03:10:46.036Z,983.9
2022-09-25T03:13:12.161Z,983.9
2022-09-25T03:15:38.233Z,983.8
2022-09-25T03:18:04.327Z,983.8
2022-09-25T03:20:29.472Z,983.9
2022-09-25T03:22:55.540Z,983.8
2022-09-25T03:25:21.636Z,983.9
2022-09-25T03:27:47.726Z,983.9
2022-09-25T03:30:13.818Z,983.8
2022-09-25T03:32:39.921Z,984
2022-09-25T03:35:06.006Z,984
2022-09-25T03:37:32.116Z,983.9
2022-09-25T03:39:58.212Z,983.9
2022-09-25T03:42:24.323Z,984
2022-09-25T03:44:50.397Z,983.9
2022-09-25T03:47:16.500Z,983.8
2022-09-25T03:49:42.592Z,983.8
2022-09-25T03:52:07.695Z,983.9
2022-09-25T03:54:33.795Z,983.8
2022-09-25T03:56:59.884Z,983.8
2022-09-25T03:59:25.983Z,983.8
2022-09-25T04:01:52.116Z,983.8
2022-09-25T04:04:18.174Z,983.9
2022-09-25T04:09:10.398Z,983.8
2022-09-25T04:11:36.444Z,983.8
2022-09-25T04:14:02.566Z,983.8
2022-09-25T04:16:28.646Z,983.8
2022-09-25T04:18:54.728Z,983.8
2022-09-25T04:21:20.846Z,983.8
2022-09-25T04:23:46.003Z,983.7
2022-09-25T04:26:12.031Z,983.7
2022-09-25T04:28:38.129Z,983.8
2022-09-25T04:31:04.237Z,983.8
2022-09-25T04:33:30.333Z,983.8
2022-09-25T04:35:56.417Z,983.9
2022-09-25T04:38:22.569Z,983.8
2022-09-25T04:40:48.614Z,983.8
2022-09-25T04:43:14.720Z,983.8
2022-09-25T04:45:40.836Z,983.9
2022-09-25T04:48:06.898Z,983.9
2022-09-25T04:50:32.996Z,983.8
2022-09-25T04:52:59.079Z,983.8
2022-09-25T04:55:24.190Z,983.8
2022-09-25T04:57:50.289Z,983.8
2022-09-25T05:00:16.408Z,983.8
2022-09-25T05:02:42.501Z,983.8
2022-09-25T05:05:08.629Z,983.8
2022-09-25T05:07:34.670Z,983.8
2022-09-25T05:10:00.772Z,983.8
2022-09-25T05:12:26.886Z,983.8
2022-09-25T05:14:52.987Z,983.8
2022-09-25T05:17:19.144Z,983.8
2022-09-25T05:19:45.198Z,983.7
2022-09-25T05:22:11.254Z,983.8
2022-09-25T05:24:37.378Z,983.8
2022-09-25T05:27:02.446Z,983.8
2022-09-25T05:29:28.560Z,983.8
2022-09-25T05:31:54.635Z,983.8
2022-09-25T05:34:20.856Z,983.8
2022-09-25T05:36:46.858Z,983.8
2022-09-25T05:39:12.923Z,983.8
2022-09-25T05:41:39.031Z,983.8
2022-09-25T05:44:05.127Z,983.8
2022-09-25T05:46:31.207Z,983.9
2022-09-25T05:48:57.298Z,983.8
2022-09-25T05:51:23.420Z,983.8
2022-09-25T05:53:49.513Z,983.9
2022-09-25T05:56:15.696Z,983.8
2022-09-25T05:58:40.698Z,983.8
2022-09-25T06:01:06.799Z,983.8
2022-09-25T06:03:32.903Z,983.9
2022-09-25T06:05:59.022Z,983.9
2022-09-25T06:08:25.103Z,983.9
2022-09-25T06:10:51.171Z,984
2022-09-25T06:13:17.277Z,983.9
2022-09-25T06:15:43.364Z,983.9
2022-09-25T06:18:09.467Z,983.9
2022-09-25T06:20:35.636Z,983.9
2022-09-25T06:23:01.655Z,983.9
2022-09-25T06:25:27.753Z,983.9
2022-09-25T06:27:53.856Z,983.8
2022-09-25T06:30:18.957Z,983.8
2022-09-25T06:32:45.075Z,983.9
2022-09-25T06:35:11.149Z,983.9
2022-09-25T06:37:37.248Z,983.9
2022-09-25T06:40:03.354Z,983.9
2022-09-25T06:42:29.438Z,984
2022-09-25T06:44:55.550Z,983.9
2022-09-25T06:47:21.637Z,984
2022-09-25T06:49:47.708Z,983.9
2022-09-25T06:52:13.810Z,983.9
2022-09-25T06:54:39.911Z,983.9
2022-09-25T06:57:06.046Z,983.9
2022-09-25T06:59:32.102Z,984
2022-09-25T07:01:57.225Z,983.9
2022-09-25T07:04:23.305Z,983.9
2022-09-25T07:06:49.466Z,983.9
2022-09-25T07:09:15.526Z,983.9
2022-09-25T07:11:41.597Z,984
2022-09-25T07:14:07.698Z,984
2022-09-25T07:16:33.814Z,984
2022-09-25T07:18:59.880Z,984
2022-09-25T07:21:26.015Z,984.1
2022-09-25T07:23:52.104Z,984
2022-09-25T07:26:18.165Z,984.1
2022-09-25T07:28:44.266Z,984.1
2022-09-25T07:31:10.374Z,984.1
2022-09-25T07:33:35.474Z,984.1
2022-09-25T07:36:01.565Z,984.2
2022-09-25T07:38:27.652Z,984.1
2022-09-25T07:40:53.755Z,984.1
2022-09-25T07:43:19.849Z,984.1
2022-09-25T07:45:45.956Z,984.1
2022-09-25T07:48:11.088Z,984.1
2022-09-25T07:50:37.177Z,984.1
2022-09-25T07:53:03.274Z,984.1
2022-09-25T07:55:29.363Z,984.1
2022-09-25T08:00:21.535Z,984.1
2022-09-25T08:02:47.652Z,984.2
2022-09-25T08:05:13.737Z,984.2
2022-09-25T08:07:39.833Z,984.2
2022-09-25T08:10:05.946Z,984.2
2022-09-25T08:12:32.021Z,984.1
2022-09-25T08:14:58.122Z,984.2
2022-09-25T08:17:24.217Z,984.2
2022-09-25T08:19:49.329Z,984.2
2022-09-25T08:22:15.424Z,984.2
2022-09-25T08:24:41.535Z,984.2
2022-09-25T08:27:07.614Z,984.2
2022-09-25T08:29:33.721Z,984.1
2022-09-25T08:31:59.813Z,984.1
2022-09-25T08:34:25.904Z,984.1
2022-09-25T08:36:52.005Z,984
2022-09-25T08:39:18.085Z,984.1
2022-09-25T08:41:44.187Z,984.1
2022-09-25T08:44:10.275Z,984
2022-09-25T08:46:36.376Z,984
2022-09-25T08:49:02.543Z,984
2022-09-25T08:51:27.709Z,984
2022-09-25T08:53:53.731Z,983.9
2022-09-25T08:56:19.934Z,984
2022-09-25T08:58:45.937Z,984
2022-09-25T09:01:12.033Z,983.9
2022-09-25T09:03:38.095Z,984
2022-09-25T09:06:04.157Z,984
2022-09-25T09:08:30.244Z,983.9
2022-09-25T09:10:56.342Z,983.9
2022-09-25T09:13:22.585Z,984
2022-09-25T09:15:48.692Z,983.9
2022-09-25T09:18:14.787Z,983.9
2022-09-25T09:20:40.868Z,984
2022-09-25T09:23:05.979Z,983.9
2022-09-25T09:25:31.987Z,984
2022-09-25T09:27:58.083Z,984
2022-09-25T09:30:24.161Z,984
2022-09-25T09:32:50.363Z,984
2022-09-25T09:35:16.439Z,984
2022-09-25T09:37:42.514Z,984
2022-09-25T09:40:08.490Z,984
2022-09-25T09:42:34.696Z,983.9
2022-09-25T09:45:00.800Z,983.8
2022-09-25T09:47:26.824Z,983.8
2022-09-25T09:49:52.896Z,983.9
2022-09-25T09:52:18.970Z,983.8
2022-09-25T09:54:44.225Z,983.8
2022-09-25T09:57:10.220Z,983.9
2022-09-25T09:59:36.310Z,983.8
2022-09-25T10:02:02.375Z,983.8
2022-09-25T10:04:28.625Z,983.8
2022-09-25T10:06:54.750Z,983.9
2022-09-25T10:09:20.821Z,983.8
2022-09-25T10:11:46.915Z,983.8
2022-09-25T10:14:12.837Z,983.9
2022-09-25T10:16:38.983Z,983.9
2022-09-25T10:19:05.051Z,983.8
2022-09-25T10:21:31.130Z,983.8
2022-09-25T10:23:57.334Z,983.7
2022-09-25T10:26:22.334Z,983.7
2022-09-25T10:28:48.529Z,983.7
2022-09-25T10:31:14.540Z,983.8
2022-09-25T10:33:40.634Z,983.8
2022-09-25T10:36:06.824Z,983.8
2022-09-25T10:38:32.980Z,983.8
2022-09-25T10:40:58.893Z,983.8
2022-09-25T10:43:25.027Z,983.8
2022-09-25T10:45:51.211Z,983.8
2022-09-25T10:48:17.343Z,983.8
2022-09-25T10:50:43.402Z,983.9
2022-09-25T10:53:09.515Z,983.8
2022-09-25T10:55:35.614Z,983.9
2022-09-25T10:58:00.716Z,983.8
2022-09-25T11:00:26.781Z,983.8
2022-09-25T11:02:52.938Z,983.9
2022-09-25T11:05:19.040Z,983.9
2022-09-25T11:07:45.109Z,983.9
2022-09-25T11:10:11.048Z,983.9
2022-09-25T11:12:37.322Z,983.8
2022-09-25T11:15:03.390Z,983.9
2022-09-25T11:17:29.373Z,983.9
2022-09-25T11:19:55.524Z,983.9
2022-09-25T11:22:21.581Z,983.9
2022-09-25T11:24:47.773Z,983.9
2022-09-25T11:27:13.862Z,983.9
2022-09-25T11:29:38.998Z,983.9
2022-09-25T11:32:05.028Z,984
2022-09-25T11:34:31.020Z,984
2022-09-25T11:36:57.142Z,983.9
2022-09-25T11:39:23.211Z,983.9
2022-09-25T11:41:49.297Z,983.9
2022-09-25T11:44:15.395Z,983.9
2022-09-25T11:46:41.510Z,983.8
2022-09-25T11:49:07.590Z,983.8
2022-09-25T11:51:33.681Z,983.9
2022-09-25T11:53:59.762Z,983.8
2022-09-25T11:56:25.867Z,983.8
2022-09-25T11:58:51.945Z,983.8
2022-09-25T12:01:17.069Z,983.8
2022-09-25T12:03:43.157Z,983.8
2022-09-25T12:06:09.535Z,983.8
2022-09-25T12:08:35.348Z,983.8
2022-09-25T12:11:01.431Z,983.8
2022-09-25T12:13:27.539Z,983.8
2022-09-25T12:15:53.642Z,983.8
2022-09-25T12:18:19.725Z,983.7
2022-09-25T12:20:45.823Z,983.7
2022-09-25T12:23:11.906Z,983.7
2022-09-25T12:25:38.019Z,983.6
2022-09-25T12:28:04.100Z,983.7
2022-09-25T12:30:30.221Z,983.6
2022-09-25T12:32:55.337Z,983.6
2022-09-25T12:35:21.400Z,983.6
2022-09-25T12:37:47.510Z,983.6
2022-09-25T12:40:13.593Z,983.6
2022-09-25T12:42:39.683Z,983.5
2022-09-25T12:45:05.791Z,983.6
2022-09-25T12:47:31.870Z,983.5
2022-09-25T12:49:57.974Z,983.6
2022-09-25T12:52:24.062Z,983.5
2022-09-25T12:54:50.444Z,983.5
2022-09-25T12:57:16.268Z,983.5
2022-09-25T12:59:42.368Z,983.5
2022-09-25T13:02:08.442Z,983.4
2022-09-25T13:04:33.571Z,983.4
2022-09-25T13:06:59.662Z,983.4
2022-09-25T13:09:25.751Z,983.4
2022-09-25T13:11:51.845Z,983.4
2022-09-25T13:14:17.959Z,983.4
2022-09-25T13:16:44.035Z,983.4
2022-09-25T13:19:10.136Z,983.4
2022-09-25T13:21:36.231Z,983.4
2022-09-25T13:24:02.332Z,983.3
2022-09-25T13:26:28.421Z,983.3
2022-09-25T13:28:54.517Z,983.3
2022-09-25T13:31:20.607Z,983.3
2022-09-25T13:33:46.715Z,983.3
2022-09-25T13:36:11.824Z,983.3
2022-09-25T13:38:37.927Z,983.3
2022-09-25T13:41:04.023Z,983.4
2022-09-25T13:43:30.107Z,983.3
2022-09-25T13:45:56.214Z,983.3
2022-09-25T13:48:22.330Z,983.3
2022-09-25T13:50:48.391Z,983.3
2022-09-25T13:53:14.489Z,983.3
2022-09-25T13:55:40.625Z,983.3
2022-09-25T13:58:06.712Z,983.3
2022-09-25T14:00:32.775Z,983.3
2022-09-25T14:02:58.875Z,983.3
2022-09-25T14:05:24.979Z,983.3
2022-09-25T14:07:50.124Z,983.3
2022-09-25T14:10:16.177Z,983.2
2022-09-25T14:12:42.287Z,983.1
2022-09-25T14:15:08.369Z,983.2
2022-09-25T14:17:34.463Z,983.2
2022-09-25T14:20:00.555Z,983.2
2022-09-25T14:22:26.658Z,983.2
2022-09-25T14:24:52.765Z,983.2
2022-09-25T14:27:18.845Z,983.2
2022-09-25T14:29:44.968Z,983.1
2022-09-25T14:32:11.027Z,983.1
2022-09-25T14:34:37.259Z,983.1
2022-09-25T14:37:03.230Z,983.1
2022-09-25T14:39:28.465Z,983.1
2022-09-25T14:41:54.580Z,983.1
2022-09-25T14:44:20.674Z,983.1
2022-09-25T14:46:46.755Z,983.1
2022-09-25T14:49:12.734Z,983.1
2022-09-25T14:51:38.814Z,983
2022-09-25T14:54:05.026Z,983.1
2022-09-25T14:56:31.152Z,983.1
2022-09-25T14:58:57.199Z,982.9
2022-09-25T15:01:23.207Z,983
2022-09-25T15:03:49.281Z,983
2022-09-25T15:06:15.431Z,983
2022-09-25T15:08:41.570Z,983
2022-09-25T15:11:06.708Z,983
2022-09-25T15:13:32.806Z,983
2022-09-25T15:15:58.894Z,983
2022-09-25T15:18:24.896Z,983
2022-09-25T15:20:50.965Z,983
2022-09-25T15:23:17.158Z,983.1
2022-09-25T15:25:43.212Z,983
2022-09-25T15:28:09.327Z,983
2022-09-25T15:30:35.430Z,983.1
2022-09-25T15:33:01.549Z,983
2022-09-25T15:35:27.534Z,982.9
2022-09-25T15:37:53.719Z,983
2022-09-25T15:40:19.773Z,982.9
2022-09-25T15:42:44.849Z,982.9
2022-09-25T15:45:11.050Z,982.9
2022-09-25T15:47:37.100Z,982.9
2022-09-25T15:50:03.243Z,982.9
2022-09-25T15:52:29.307Z,982.9
2022-09-25T15:54:55.473Z,982.8
2022-09-25T15:57:20.435Z,982.9
2022-09-25T15:59:46.546Z,982.9
2022-09-25T16:02:12.777Z,982.9
2022-09-25T16:04:38.865Z,982.9
2022-09-25T16:07:04.824Z,982.9
2022-09-25T16:09:31.009Z,982.9
2022-09-25T16:11:57.046Z,982.8
2022-09-25T16:14:23.114Z,982.9
2022-09-25T16:16:49.337Z,982.9
2022-09-25T16:19:15.427Z,982.9
2022-09-25T16:21:41.442Z,983
2022-09-25T16:24:07.554Z,983
2022-09-25T16:26:33.590Z,982.9
2022-09-25T16:28:58.692Z,983
2022-09-25T16:33:50.891Z,983.1
2022-09-25T16:36:17.038Z,983.2
2022-09-25T16:38:43.088Z,983.2
2022-09-25T16:41:09.173Z,983.2
2022-09-25T16:43:35.274Z,983.2
2022-09-25T16:46:01.365Z,983.1
2022-09-25T16:48:27.475Z,983.1
2022-09-25T16:50:53.636Z,983.2
2022-09-25T16:53:19.725Z,983.2
2022-09-25T16:55:45.732Z,983.2
2022-09-25T16:58:11.852Z,983.2
2022-09-25T17:00:36.954Z,983.2
2022-09-25T17:03:03.039Z,983.3
2022-09-25T17:05:29.135Z,983.3
2022-09-25T17:07:55.249Z,983.3
2022-09-25T17:10:21.316Z,983.3
2022-09-25T17:12:47.423Z,983.3
2022-09-25T17:15:13.523Z,983.3
2022-09-25T17:17:39.613Z,983.3
2022-09-25T17:20:05.702Z,983.3
2022-09-25T17:22:31.802Z,983.3
2022-09-25T17:27:24.021Z,983.4
2022-09-25T17:29:50.084Z,983.5
2022-09-25T17:32:15.189Z,983.4
2022-09-25T17:34:41.297Z,983.5
2022-09-25T17:37:07.430Z,983.4
2022-09-25T17:39:33.519Z,983.5
2022-09-25T17:41:59.604Z,983.5
2022-09-25T17:44:25.676Z,983.5
2022-09-25T17:46:51.779Z,983.5
2022-09-25T17:49:17.947Z,983.5
2022-09-25T17:51:43.969Z,983.5
2022-09-25T17:54:10.137Z,983.6
2022-09-25T17:56:36.180Z,983.5
2022-09-25T17:59:02.363Z,983.6
2022-09-25T18:01:28.431Z,983.7
2022-09-25T18:03:53.473Z,983.7
2022-09-25T18:06:19.552Z,983.6
2022-09-25T18:08:45.675Z,983.7
2022-09-25T18:11:11.793Z,983.7
2022-09-25T18:13:37.840Z,983.7
2022-09-25T18:16:03.953Z,983.7
2022-09-25T18:18:30.048Z,983.8
2022-09-25T18:20:56.123Z,983.7
2022-09-25T18:23:22.219Z,983.8
2022-09-25T18:25:48.346Z,983.8
2022-09-25T18:28:14.446Z,983.8
2022-09-25T18:30:40.505Z,983.8
2022-09-25T18:33:06.620Z,983.9
2022-09-25T18:35:31.724Z,983.9
2022-09-25T18:37:57.824Z,983.9
2022-09-25T18:40:23.936Z,983.9
2022-09-25T18:42:49.992Z,983.9
2022-09-25T18:45:16.143Z,983.9
2022-09-25T18:47:42.217Z,983.9
2022-09-25T18:50:08.286Z,983.9
2022-09-25T18:52:34.434Z,983.9
2022-09-25T18:55:00.483Z,983.9
2022-09-25T18:57:26.605Z,983.9
2022-09-25T18:59:52.736Z,984
2022-09-25T19:02:18.763Z,984
2022-09-25T19:04:44.882Z,983.9
2022-09-25T19:07:09.986Z,984
2022-09-25T19:09:36.069Z,984
2022-09-25T19:12:02.175Z,984
2022-09-25T19:14:28.266Z,984
2022-09-25T19:16:54.369Z,983.9
2022-09-25T19:19:20.718Z,984
2022-09-25T19:21:46.559Z,984
2022-09-25T19:24:12.652Z,984
2022-09-25T19:26:38.789Z,984
2022-09-25T19:29:04.868Z,984
2022-09-25T19:31:30.959Z,984.1
2022-09-25T19:33:57.075Z,984.1
2022-09-25T19:36:23.139Z,984.1
2022-09-25T19:38:48.244Z,984.2
2022-09-25T19:41:14.344Z,984.2
2022-09-25T19:43:40.427Z,984.2
2022-09-25T19:46:06.533Z,984.3
2022-09-25T19:48:32.649Z,984.4
2022-09-25T19:50:58.720Z,984.3
2022-09-25T19:53:24.806Z,984.3
2022-09-25T19:55:50.907Z,984.2
2022-09-25T19:58:17.003Z,984.3
2022-09-25T20:00:43.093Z,984.3
2022-09-25T20:03:09.198Z,984.3
2022-09-25T20:05:35.285Z,984.3
2022-09-25T20:08:01.373Z,984.3
2022-09-25T20:10:26.504Z,984.3
2022-09-25T20:12:52.616Z,984.2
2022-09-25T20:15:18.686Z,984.3
2022-09-25T20:17:44.801Z,984.3
2022-09-25T20:20:10.871Z,984.3
2022-09-25T20:22:36.987Z,984.2
2022-09-25T20:25:03.123Z,984.2
2022-09-25T20:27:29.157Z,984.2
2022-09-25T20:29:55.266Z,984.2
2022-09-25T20:32:21.380Z,984.2
2022-09-25T20:34:47.497Z,984.1
2022-09-25T20:37:13.561Z,984.2
2022-09-25T20:39:39.637Z,984.2
2022-09-25T20:42:04.737Z,984.2
2022-09-25T20:44:30.835Z,984.2
2022-09-25T20:46:56.954Z,984.2
2022-09-25T20:49:23.023Z,984.2
2022-09-25T20:51:49.168Z,984.1
2022-09-25T20:54:15.254Z,984.2
2022-09-25T20:56:41.346Z,984.2
2022-09-25T20:59:07.421Z,984.3
2022-09-25T21:01:33.513Z,984.2
2022-09-25T21:03:59.612Z,984.2
2022-09-25T21:06:25.714Z,984.2
2022-09-25T21:08:51.795Z,984.2
2022-09-25T21:11:17.954Z,984.2
2022-09-25T21:13:42.997Z,984.1
2022-09-25T21:16:09.119Z,984.2
2022-09-25T21:18:35.203Z,984.2
2022-09-25T21:21:01.297Z,984.2
2022-09-25T21:23:27.429Z,984.2
2022-09-25T21:25:53.474Z,984.2
2022-09-25T21:28:19.573Z,984.1
2022-09-25T21:30:45.667Z,984.1
2022-09-25T21:33:11.764Z,984.1
2022-09-25T21:35:37.875Z,984.1
2022-09-25T21:38:03.958Z,984.2
2022-09-25T21:40:30.053Z,984.1
2022-09-25T21:42:56.149Z,984.2
2022-09-25T21:45:21.266Z,984.2
2022-09-25T21:47:47.351Z,984.1
2022-09-25T21:50:13.445Z,984.1
2022-09-25T21:52:39.552Z,984.2
2022-09-25T21:55:05.645Z,984.1
2022-09-25T21:57:31.744Z,984.1
2022-09-25T21:59:57.839Z,984.1
2022-09-25T22:02:23.925Z,984.1
2022-09-25T22:04:50.008Z,984.1
2022-09-25T22:07:16.111Z,984.1
2022-09-25T22:09:42.225Z,984.1
2022-09-25T22:12:08.306Z,984.1
2022-09-25T22:14:34.481Z,984.1
2022-09-25T22:16:59.585Z,984.1
2022-09-25T22:19:25.616Z,984.1
2022-09-25T22:21:51.701Z,984.1
2022-09-25T22:24:17.820Z,984.2
2022-09-25T22:26:43.910Z,984.1
2022-09-25T22:29:10.003Z,984.1
2022-09-25T22:31:36.196Z,984
2022-09-25T22:34:02.228Z,984
2022-09-25T22:36:28.280Z,984.1
2022-09-25T22:38:54.384Z,984.1
2022-09-25T22:41:20.461Z,984.1
2022-09-25T22:43:46.606Z,984.1
2022-09-25T22:46:12.654Z,984.2
2022-09-25T22:48:37.767Z,984.2
2022-09-25T22:51:03.899Z,984.2
2022-09-25T22:53:29.953Z,984.1
2022-09-25T22:55:56.062Z,984.2
2022-09-25T22:58:22.151Z,984.1
2022-09-25T23:00:48.242Z,984.1
2022-09-25T23:03:14.338Z,984.1
2022-09-25T23:05:40.441Z,984.1
2022-09-25T23:08:06.530Z,984.1
2022-09-25T23:10:32.650Z,984.1
2022-09-25T23:12:58.728Z,984.1
2022-09-25T23:15:24.841Z,984.1
2022-09-25T23:17:50.905Z,984
2022-09-25T23:20:16.084Z,984
2022-09-25T23:22:42.112Z,983.9
2022-09-25T23:25:08.252Z,984
2022-09-25T23:27:34.299Z,984
2022-09-25T23:30:00.417Z,983.9
2022-09-25T23:32:26.493Z,983.9
2022-09-25T23:34:52.596Z,983.9
2022-09-25T23:37:18.775Z,983.8
2022-09-25T23:39:44.779Z,983.8
2022-09-25T23:42:10.866Z,983.8
2022-09-25T23:44:36.970Z,983.8
2022-09-25T23:47:03.134Z,983.7
2022-09-25T23:49:29.172Z,983.8
2022-09-25T23:51:54.390Z,983.8
2022-09-25T23:54:20.477Z,983.7
2022-09-25T23:56:46.549Z,983.6
2022-09-25T23:59:12.566Z,983.5
